createdAt,value
2019-01-04T22:41:48.236Z,17.01
2019-01-04T22:42:48.215Z,16.79
2019-01-04T22:43:48.211Z,16.93
2019-01-04T22:47:42.062Z,13.72
2019-01-04T22:48:43.682Z,8.36
2019-01-04T22:49:43.666Z,4.14
2019-01-04T22:50:43.667Z,1.28
2019-01-04T22:51:44.667Z,0.01
2019-01-04T22:52:43.667Z,-0.53
2019-01-04T22:53:43.679Z,-0.77
2019-01-04T22:54:44.680Z,-0.94
2019-01-04T22:55:44.685Z,-1.15
2019-01-04T22:56:44.667Z,-1.20
2019-01-04T22:57:44.675Z,-1.29
2019-01-04T22:58:43.703Z,-1.22
2019-01-04T22:59:43.671Z,-1.26
2019-01-04T23:00:43.667Z,-1.26
2019-01-04T23:01:43.671Z,-1.29
2019-01-04T23:02:43.682Z,-1.22
2019-01-04T23:03:43.671Z,-1.35
2019-01-04T23:04:43.699Z,-1.20
2019-01-04T23:05:43.666Z,-1.23
2019-01-04T23:06:43.669Z,-1.33
2019-01-04T23:07:43.666Z,-1.26
2019-01-04T23:08:43.674Z,-1.35
2019-01-04T23:09:41.859Z,-1.37
2019-01-04T23:10:43.667Z,-1.25
2019-01-04T23:11:43.669Z,-1.35
2019-01-04T23:12:43.666Z,-1.27
2019-01-04T23:13:43.685Z,-1.25
2019-01-04T23:14:43.679Z,-1.25
2019-01-04T23:15:43.666Z,-1.30
2019-01-04T23:16:43.716Z,-1.26
2019-01-04T23:17:43.665Z,-1.20
2019-01-04T23:18:43.666Z,-1.32
2019-01-04T23:19:43.677Z,-1.33
2019-01-04T23:20:44.674Z,-1.22
2019-01-04T23:21:43.670Z,-1.22
2019-01-04T23:22:43.671Z,-1.35
2019-01-04T23:23:43.162Z,-1.19
2019-01-04T23:24:43.185Z,-1.23
2019-01-04T23:25:43.163Z,-1.23
2019-01-04T23:26:43.164Z,-1.26
2019-01-04T23:27:43.164Z,-1.23
2019-01-04T23:28:41.609Z,-1.20
2019-01-04T23:29:43.178Z,-1.22
2019-01-04T23:30:43.163Z,-1.26
2019-01-04T23:31:43.161Z,-1.22
2019-01-04T23:32:43.172Z,-1.12
2019-01-04T23:33:43.163Z,-1.17
2019-01-04T23:34:43.173Z,-1.20
2019-01-04T23:35:43.162Z,-1.22
2019-01-04T23:36:43.180Z,-1.25
2019-01-04T23:37:43.160Z,-1.12
2019-01-04T23:38:43.179Z,-1.15
2019-01-04T23:39:43.174Z,-1.17
2019-01-04T23:40:43.160Z,-1.09
2019-01-04T23:41:43.167Z,-1.12
2019-01-04T23:42:43.167Z,-1.12
2019-01-04T23:43:43.160Z,-1.08
2019-01-04T23:44:43.173Z,-1.04
2019-01-04T23:45:43.159Z,-1.05
2019-01-04T23:46:43.159Z,-1.15
2019-01-04T23:47:41.403Z,-1.11
2019-01-04T23:48:43.166Z,-1.05
2019-01-04T23:49:43.176Z,-1.11
2019-01-04T23:50:43.180Z,-1.02
2019-01-04T23:51:43.163Z,-1.09
2019-01-04T23:52:43.163Z,-1.02
2019-01-04T23:53:43.159Z,-1.04
2019-01-04T23:54:43.172Z,-0.97
2019-01-04T23:55:43.160Z,-1.09
2019-01-04T23:56:43.171Z,-1.05
2019-01-04T23:57:43.159Z,-1.02
2019-01-04T23:58:43.162Z,-1.12
2019-01-04T23:59:43.175Z,-1.01
